sensor_id;sensor_type;location;lat;lon;timestamp;P1;durP1;ratioP1;P2;durP2;ratioP2
20411;SDS011;10365;52.578;8.138;2023-04-25T00:01:10;23.58;;;6.35;;
20411;SDS011;10365;52.578;8.138;2023-04-25T00:03:38;18.30;;;6.05;;
20411;SDS011;10365;52.578;8.138;2023-04-25T00:06:04;16.05;;;5.85;;
20411;SDS011;10365;52.578;8.138;2023-04-25T00:08:29;17.67;;;6.05;;
20411;SDS011;10365;52.578;8.138;2023-04-25T00:10:55;20.52;;;5.97;;
20411;SDS011;10365;52.578;8.138;2023-04-25T00:13:21;24.05;;;5.75;;
20411;SDS011;10365;52.578;8.138;2023-04-25T00:15:47;19.23;;;4.43;;
20411;SDS011;10365;52.578;8.138;2023-04-25T00:18:13;25.67;;;7.10;;
20411;SDS011;10365;52.578;8.138;2023-04-25T00:20:39;16.50;;;5.40;;
20411;SDS011;10365;52.578;8.138;2023-04-25T00:23:05;24.65;;;5.18;;
20411;SDS011;10365;52.578;8.138;2023-04-25T00:25:31;25.15;;;5.53;;
20411;SDS011;10365;52.578;8.138;2023-04-25T00:27:56;23.77;;;5.00;;
20411;SDS011;10365;52.578;8.138;2023-04-25T00:30:23;22.77;;;5.30;;
20411;SDS011;10365;52.578;8.138;2023-04-25T00:32:48;20.60;;;5.25;;
20411;SDS011;10365;52.578;8.138;2023-04-25T00:35:14;33.47;;;5.63;;
20411;SDS011;10365;52.578;8.138;2023-04-25T00:37:39;21.05;;;5.45;;
20411;SDS011;10365;52.578;8.138;2023-04-25T00:40:05;29.65;;;5.72;;
20411;SDS011;10365;52.578;8.138;2023-04-25T00:42:31;25.65;;;5.60;;
20411;SDS011;10365;52.578;8.138;2023-04-25T00:44:58;20.75;;;5.68;;
20411;SDS011;10365;52.578;8.138;2023-04-25T00:47:23;21.13;;;4.80;;
20411;SDS011;10365;52.578;8.138;2023-04-25T00:49:49;23.35;;;4.70;;
20411;SDS011;10365;52.578;8.138;2023-04-25T00:52:14;26.15;;;5.82;;
20411;SDS011;10365;52.578;8.138;2023-04-25T00:54:39;25.00;;;5.38;;
20411;SDS011;10365;52.578;8.138;2023-04-25T00:57:05;25.42;;;5.63;;
20411;SDS011;10365;52.578;8.138;2023-04-25T00:59:30;32.88;;;5.85;;
20411;SDS011;10365;52.578;8.138;2023-04-25T01:01:56;36.58;;;5.80;;
20411;SDS011;10365;52.578;8.138;2023-04-25T01:04:22;34.58;;;5.82;;
20411;SDS011;10365;52.578;8.138;2023-04-25T01:06:47;32.83;;;5.53;;
20411;SDS011;10365;52.578;8.138;2023-04-25T01:09:13;32.30;;;5.20;;
20411;SDS011;10365;52.578;8.138;2023-04-25T01:11:39;28.42;;;5.00;;
20411;SDS011;10365;52.578;8.138;2023-04-25T01:14:05;34.90;;;5.72;;
20411;SDS011;10365;52.578;8.138;2023-04-25T01:16:31;22.08;;;5.10;;
20411;SDS011;10365;52.578;8.138;2023-04-25T01:18:56;33.03;;;6.03;;
20411;SDS011;10365;52.578;8.138;2023-04-25T01:21:22;26.15;;;5.88;;
20411;SDS011;10365;52.578;8.138;2023-04-25T01:23:47;26.45;;;5.18;;
20411;SDS011;10365;52.578;8.138;2023-04-25T01:26:13;32.90;;;5.43;;
20411;SDS011;10365;52.578;8.138;2023-04-25T01:28:39;23.17;;;4.72;;
20411;SDS011;10365;52.578;8.138;2023-04-25T01:31:09;27.55;;;5.50;;
20411;SDS011;10365;52.578;8.138;2023-04-25T01:33:35;24.95;;;5.82;;
20411;SDS011;10365;52.578;8.138;2023-04-25T01:36:00;20.17;;;4.95;;
20411;SDS011;10365;52.578;8.138;2023-04-25T01:38:25;26.02;;;5.05;;
20411;SDS011;10365;52.578;8.138;2023-04-25T01:40:53;24.42;;;5.53;;
20411;SDS011;10365;52.578;8.138;2023-04-25T01:43:18;25.23;;;4.93;;
20411;SDS011;10365;52.578;8.138;2023-04-25T01:45:44;27.13;;;5.97;;
20411;SDS011;10365;52.578;8.138;2023-04-25T01:48:11;36.83;;;6.07;;
20411;SDS011;10365;52.578;8.138;2023-04-25T01:50:37;31.63;;;6.47;;
20411;SDS011;10365;52.578;8.138;2023-04-25T01:53:03;37.22;;;6.50;;
20411;SDS011;10365;52.578;8.138;2023-04-25T01:55:29;30.42;;;5.40;;
20411;SDS011;10365;52.578;8.138;2023-04-25T01:58:02;28.52;;;6.40;;
20411;SDS011;10365;52.578;8.138;2023-04-25T02:00:54;29.20;;;4.78;;
20411;SDS011;10365;52.578;8.138;2023-04-25T02:03:20;28.15;;;5.40;;
20411;SDS011;10365;52.578;8.138;2023-04-25T02:05:45;32.90;;;5.53;;
20411;SDS011;10365;52.578;8.138;2023-04-25T02:08:12;34.75;;;5.63;;
20411;SDS011;10365;52.578;8.138;2023-04-25T02:10:37;26.30;;;5.13;;
20411;SDS011;10365;52.578;8.138;2023-04-25T02:13:12;38.83;;;7.30;;
20411;SDS011;10365;52.578;8.138;2023-04-25T02:16:04;32.95;;;5.72;;
20411;SDS011;10365;52.578;8.138;2023-04-25T02:18:30;33.17;;;6.80;;
20411;SDS011;10365;52.578;8.138;2023-04-25T02:20:56;29.85;;;5.20;;
20411;SDS011;10365;52.578;8.138;2023-04-25T02:23:21;23.98;;;4.45;;
20411;SDS011;10365;52.578;8.138;2023-04-25T02:25:47;23.95;;;4.88;;
20411;SDS011;10365;52.578;8.138;2023-04-25T02:28:12;35.78;;;5.38;;
20411;SDS011;10365;52.578;8.138;2023-04-25T02:30:38;36.10;;;5.32;;
20411;SDS011;10365;52.578;8.138;2023-04-25T02:33:04;28.33;;;4.95;;
20411;SDS011;10365;52.578;8.138;2023-04-25T02:35:29;21.83;;;4.95;;
20411;SDS011;10365;52.578;8.138;2023-04-25T02:37:55;26.52;;;4.72;;
20411;SDS011;10365;52.578;8.138;2023-04-25T02:40:20;28.75;;;5.30;;
20411;SDS011;10365;52.578;8.138;2023-04-25T02:42:45;28.67;;;4.85;;
20411;SDS011;10365;52.578;8.138;2023-04-25T02:45:11;21.27;;;4.43;;
20411;SDS011;10365;52.578;8.138;2023-04-25T02:47:36;21.23;;;5.20;;
20411;SDS011;10365;52.578;8.138;2023-04-25T02:50:02;23.80;;;4.68;;
20411;SDS011;10365;52.578;8.138;2023-04-25T02:52:28;21.88;;;5.65;;
20411;SDS011;10365;52.578;8.138;2023-04-25T02:55:01;18.30;;;5.32;;
20411;SDS011;10365;52.578;8.138;2023-04-25T02:57:28;30.83;;;5.82;;
20411;SDS011;10365;52.578;8.138;2023-04-25T02:59:55;28.20;;;5.30;;
20411;SDS011;10365;52.578;8.138;2023-04-25T03:02:20;20.98;;;4.85;;
20411;SDS011;10365;52.578;8.138;2023-04-25T03:04:45;34.03;;;4.97;;
20411;SDS011;10365;52.578;8.138;2023-04-25T03:07:11;19.33;;;4.88;;
20411;SDS011;10365;52.578;8.138;2023-04-25T03:09:36;19.25;;;4.70;;
20411;SDS011;10365;52.578;8.138;2023-04-25T03:12:03;20.55;;;5.55;;
20411;SDS011;10365;52.578;8.138;2023-04-25T03:14:30;26.00;;;5.13;;
20411;SDS011;10365;52.578;8.138;2023-04-25T03:16:56;22.35;;;5.78;;
20411;SDS011;10365;52.578;8.138;2023-04-25T03:19:21;20.80;;;4.75;;
20411;SDS011;10365;52.578;8.138;2023-04-25T03:21:47;27.17;;;5.75;;
20411;SDS011;10365;52.578;8.138;2023-04-25T03:24:12;32.58;;;4.93;;
20411;SDS011;10365;52.578;8.138;2023-04-25T03:26:37;22.33;;;5.55;;
20411;SDS011;10365;52.578;8.138;2023-04-25T03:29:04;22.67;;;4.93;;
20411;SDS011;10365;52.578;8.138;2023-04-25T03:31:29;29.50;;;5.03;;
20411;SDS011;10365;52.578;8.138;2023-04-25T03:33:55;23.40;;;4.65;;
20411;SDS011;10365;52.578;8.138;2023-04-25T03:36:22;30.77;;;5.38;;
20411;SDS011;10365;52.578;8.138;2023-04-25T03:38:47;24.67;;;4.90;;
20411;SDS011;10365;52.578;8.138;2023-04-25T03:41:14;25.00;;;4.70;;
20411;SDS011;10365;52.578;8.138;2023-04-25T03:43:57;26.95;;;5.28;;
20411;SDS011;10365;52.578;8.138;2023-04-25T03:46:25;28.10;;;4.45;;
20411;SDS011;10365;52.578;8.138;2023-04-25T03:48:51;25.88;;;4.30;;
20411;SDS011;10365;52.578;8.138;2023-04-25T03:51:20;20.98;;;5.22;;
20411;SDS011;10365;52.578;8.138;2023-04-25T03:53:47;25.95;;;5.45;;
20411;SDS011;10365;52.578;8.138;2023-04-25T03:56:18;13.18;;;3.63;;
20411;SDS011;10365;52.578;8.138;2023-04-25T03:58:45;25.27;;;4.90;;
20411;SDS011;10365;52.578;8.138;2023-04-25T04:01:12;27.38;;;4.93;;
20411;SDS011;10365;52.578;8.138;2023-04-25T04:03:39;22.10;;;4.53;;
20411;SDS011;10365;52.578;8.138;2023-04-25T04:06:04;22.80;;;4.45;;
20411;SDS011;10365;52.578;8.138;2023-04-25T04:08:33;18.35;;;4.28;;
20411;SDS011;10365;52.578;8.138;2023-04-25T04:10:58;21.23;;;4.32;;
20411;SDS011;10365;52.578;8.138;2023-04-25T04:13:25;19.90;;;4.03;;
20411;SDS011;10365;52.578;8.138;2023-04-25T04:15:52;27.02;;;5.93;;
20411;SDS011;10365;52.578;8.138;2023-04-25T04:18:17;17.77;;;4.38;;
20411;SDS011;10365;52.578;8.138;2023-04-25T04:20:43;14.60;;;3.58;;
20411;SDS011;10365;52.578;8.138;2023-04-25T04:23:08;17.67;;;3.85;;
20411;SDS011;10365;52.578;8.138;2023-04-25T04:25:34;14.00;;;3.88;;
20411;SDS011;10365;52.578;8.138;2023-04-25T04:28:07;26.65;;;4.50;;
20411;SDS011;10365;52.578;8.138;2023-04-25T04:30:42;27.30;;;3.78;;
20411;SDS011;10365;52.578;8.138;2023-04-25T04:33:08;23.13;;;4.65;;
20411;SDS011;10365;52.578;8.138;2023-04-25T04:35:34;22.08;;;3.65;;
20411;SDS011;10365;52.578;8.138;2023-04-25T04:37:59;18.73;;;3.53;;
20411;SDS011;10365;52.578;8.138;2023-04-25T04:40:29;17.23;;;3.67;;
20411;SDS011;10365;52.578;8.138;2023-04-25T04:43:18;16.92;;;3.72;;
20411;SDS011;10365;52.578;8.138;2023-04-25T04:45:54;14.27;;;3.10;;
20411;SDS011;10365;52.578;8.138;2023-04-25T04:48:21;24.58;;;3.47;;
20411;SDS011;10365;52.578;8.138;2023-04-25T04:51:06;20.38;;;3.78;;
20411;SDS011;10365;52.578;8.138;2023-04-25T04:53:48;15.70;;;3.10;;
20411;SDS011;10365;52.578;8.138;2023-04-25T04:56:32;19.77;;;3.13;;
20411;SDS011;10365;52.578;8.138;2023-04-25T04:59:17;10.52;;;3.00;;
20411;SDS011;10365;52.578;8.138;2023-04-25T05:02:06;20.85;;;3.63;;
20411;SDS011;10365;52.578;8.138;2023-04-25T05:04:55;21.02;;;3.72;;
20411;SDS011;10365;52.578;8.138;2023-04-25T05:07:39;17.35;;;3.40;;
20411;SDS011;10365;52.578;8.138;2023-04-25T05:10:25;14.40;;;2.92;;
20411;SDS011;10365;52.578;8.138;2023-04-25T05:13:14;18.70;;;3.60;;
20411;SDS011;10365;52.578;8.138;2023-04-25T05:15:58;15.77;;;3.33;;
20411;SDS011;10365;52.578;8.138;2023-04-25T05:18:33;16.27;;;3.28;;
20411;SDS011;10365;52.578;8.138;2023-04-25T05:21:14;16.90;;;3.53;;
20411;SDS011;10365;52.578;8.138;2023-04-25T05:23:58;16.15;;;3.65;;
20411;SDS011;10365;52.578;8.138;2023-04-25T05:26:50;13.25;;;3.03;;
20411;SDS011;10365;52.578;8.138;2023-04-25T05:29:33;18.30;;;3.58;;
20411;SDS011;10365;52.578;8.138;2023-04-25T05:32:17;18.23;;;3.63;;
20411;SDS011;10365;52.578;8.138;2023-04-25T05:34:44;9.48;;;2.33;;
20411;SDS011;10365;52.578;8.138;2023-04-25T05:37:19;15.88;;;2.90;;
20411;SDS011;10365;52.578;8.138;2023-04-25T05:39:53;20.52;;;3.08;;
20411;SDS011;10365;52.578;8.138;2023-04-25T05:42:33;21.75;;;2.88;;
20411;SDS011;10365;52.578;8.138;2023-04-25T05:45:25;15.38;;;2.97;;
20411;SDS011;10365;52.578;8.138;2023-04-25T05:48:09;14.30;;;2.53;;
20411;SDS011;10365;52.578;8.138;2023-04-25T05:50:42;13.55;;;2.72;;
20411;SDS011;10365;52.578;8.138;2023-04-25T05:53:26;20.08;;;3.25;;
20411;SDS011;10365;52.578;8.138;2023-04-25T05:55:58;20.98;;;3.08;;
20411;SDS011;10365;52.578;8.138;2023-04-25T05:58:25;12.93;;;2.65;;
20411;SDS011;10365;52.578;8.138;2023-04-25T06:00:52;10.48;;;2.88;;
20411;SDS011;10365;52.578;8.138;2023-04-25T06:03:17;19.15;;;2.88;;
20411;SDS011;10365;52.578;8.138;2023-04-25T06:05:44;17.10;;;3.30;;
20411;SDS011;10365;52.578;8.138;2023-04-25T06:08:09;16.67;;;2.63;;
20411;SDS011;10365;52.578;8.138;2023-04-25T06:10:36;14.77;;;2.85;;
20411;SDS011;10365;52.578;8.138;2023-04-25T06:13:02;13.60;;;3.08;;
20411;SDS011;10365;52.578;8.138;2023-04-25T06:15:28;18.58;;;3.20;;
20411;SDS011;10365;52.578;8.138;2023-04-25T06:17:54;17.27;;;2.75;;
20411;SDS011;10365;52.578;8.138;2023-04-25T06:20:20;16.08;;;3.28;;
20411;SDS011;10365;52.578;8.138;2023-04-25T06:22:48;11.25;;;2.55;;
20411;SDS011;10365;52.578;8.138;2023-04-25T06:25:14;14.30;;;3.08;;
20411;SDS011;10365;52.578;8.138;2023-04-25T06:27:40;22.35;;;3.65;;
20411;SDS011;10365;52.578;8.138;2023-04-25T06:30:05;22.77;;;3.40;;
20411;SDS011;10365;52.578;8.138;2023-04-25T06:32:32;11.75;;;2.55;;
20411;SDS011;10365;52.578;8.138;2023-04-25T06:35:00;8.43;;;2.15;;
20411;SDS011;10365;52.578;8.138;2023-04-25T06:37:25;12.95;;;2.80;;
20411;SDS011;10365;52.578;8.138;2023-04-25T06:39:51;22.33;;;3.35;;
20411;SDS011;10365;52.578;8.138;2023-04-25T06:42:16;18.75;;;2.35;;
20411;SDS011;10365;52.578;8.138;2023-04-25T06:44:50;13.95;;;2.45;;
20411;SDS011;10365;52.578;8.138;2023-04-25T06:47:17;22.23;;;2.67;;
20411;SDS011;10365;52.578;8.138;2023-04-25T06:49:43;20.48;;;2.20;;
20411;SDS011;10365;52.578;8.138;2023-04-25T06:52:09;20.58;;;2.30;;
20411;SDS011;10365;52.578;8.138;2023-04-25T06:54:36;10.82;;;2.30;;
20411;SDS011;10365;52.578;8.138;2023-04-25T06:57:16;11.32;;;2.28;;
20411;SDS011;10365;52.578;8.138;2023-04-25T06:59:42;11.07;;;2.47;;
20411;SDS011;10365;52.578;8.138;2023-04-25T07:02:08;9.45;;;1.98;;
20411;SDS011;10365;52.578;8.138;2023-04-25T07:04:33;9.90;;;1.90;;
20411;SDS011;10365;52.578;8.138;2023-04-25T07:07:01;8.88;;;1.58;;
20411;SDS011;10365;52.578;8.138;2023-04-25T07:09:37;10.30;;;1.63;;
20411;SDS011;10365;52.578;8.138;2023-04-25T07:12:03;7.40;;;1.50;;
20411;SDS011;10365;52.578;8.138;2023-04-25T07:14:29;13.98;;;2.10;;
20411;SDS011;10365;52.578;8.138;2023-04-25T07:16:55;8.95;;;1.38;;
20411;SDS011;10365;52.578;8.138;2023-04-25T07:19:23;15.75;;;1.85;;
20411;SDS011;10365;52.578;8.138;2023-04-25T07:21:56;9.73;;;1.65;;
20411;SDS011;10365;52.578;8.138;2023-04-25T07:24:21;10.32;;;1.83;;
20411;SDS011;10365;52.578;8.138;2023-04-25T07:26:48;8.27;;;1.80;;
20411;SDS011;10365;52.578;8.138;2023-04-25T07:29:34;12.50;;;1.88;;
20411;SDS011;10365;52.578;8.138;2023-04-25T07:32:02;15.90;;;1.90;;
20411;SDS011;10365;52.578;8.138;2023-04-25T07:34:27;10.45;;;1.70;;
20411;SDS011;10365;52.578;8.138;2023-04-25T07:36:53;14.02;;;1.98;;
20411;SDS011;10365;52.578;8.138;2023-04-25T07:39:20;9.52;;;1.73;;
20411;SDS011;10365;52.578;8.138;2023-04-25T07:41:45;15.73;;;3.65;;
20411;SDS011;10365;52.578;8.138;2023-04-25T07:44:17;7.18;;;1.88;;
20411;SDS011;10365;52.578;8.138;2023-04-25T07:46:43;8.75;;;1.35;;
20411;SDS011;10365;52.578;8.138;2023-04-25T07:49:08;9.15;;;2.30;;
20411;SDS011;10365;52.578;8.138;2023-04-25T07:51:35;8.00;;;1.35;;
20411;SDS011;10365;52.578;8.138;2023-04-25T07:54:06;7.55;;;2.22;;
20411;SDS011;10365;52.578;8.138;2023-04-25T07:56:35;7.00;;;1.73;;
20411;SDS011;10365;52.578;8.138;2023-04-25T07:59:00;6.72;;;1.73;;
20411;SDS011;10365;52.578;8.138;2023-04-25T08:01:26;9.02;;;1.67;;
20411;SDS011;10365;52.578;8.138;2023-04-25T08:03:56;5.40;;;1.00;;
20411;SDS011;10365;52.578;8.138;2023-04-25T08:06:28;6.63;;;1.30;;
20411;SDS011;10365;52.578;8.138;2023-04-25T08:09:08;7.32;;;1.30;;
20411;SDS011;10365;52.578;8.138;2023-04-25T08:11:37;12.18;;;4.20;;
20411;SDS011;10365;52.578;8.138;2023-04-25T08:14:03;9.32;;;3.22;;
20411;SDS011;10365;52.578;8.138;2023-04-25T08:16:29;8.80;;;1.63;;
20411;SDS011;10365;52.578;8.138;2023-04-25T08:18:55;4.28;;;1.00;;
20411;SDS011;10365;52.578;8.138;2023-04-25T08:21:21;12.88;;;1.95;;
20411;SDS011;10365;52.578;8.138;2023-04-25T08:23:47;6.50;;;2.25;;
20411;SDS011;10365;52.578;8.138;2023-04-25T08:26:21;7.05;;;1.13;;
20411;SDS011;10365;52.578;8.138;2023-04-25T08:28:49;9.48;;;1.80;;
20411;SDS011;10365;52.578;8.138;2023-04-25T08:31:14;12.68;;;2.25;;
20411;SDS011;10365;52.578;8.138;2023-04-25T08:33:50;11.00;;;1.52;;
20411;SDS011;10365;52.578;8.138;2023-04-25T08:36:22;7.95;;;1.10;;
20411;SDS011;10365;52.578;8.138;2023-04-25T08:38:48;10.10;;;2.65;;
20411;SDS011;10365;52.578;8.138;2023-04-25T08:41:17;11.00;;;2.15;;
20411;SDS011;10365;52.578;8.138;2023-04-25T08:43:43;10.52;;;2.63;;
20411;SDS011;10365;52.578;8.138;2023-04-25T08:46:11;5.10;;;1.17;;
20411;SDS011;10365;52.578;8.138;2023-04-25T08:48:51;12.82;;;4.22;;
20411;SDS011;10365;52.578;8.138;2023-04-25T08:51:22;4.90;;;1.00;;
20411;SDS011;10365;52.578;8.138;2023-04-25T08:53:50;9.85;;;1.58;;
20411;SDS011;10365;52.578;8.138;2023-04-25T08:56:16;8.80;;;1.25;;
20411;SDS011;10365;52.578;8.138;2023-04-25T08:58:43;4.22;;;0.95;;
20411;SDS011;10365;52.578;8.138;2023-04-25T09:01:10;6.32;;;1.63;;
20411;SDS011;10365;52.578;8.138;2023-04-25T09:03:44;8.57;;;2.17;;
20411;SDS011;10365;52.578;8.138;2023-04-25T09:06:11;8.18;;;2.05;;
20411;SDS011;10365;52.578;8.138;2023-04-25T09:08:37;4.13;;;0.90;;
20411;SDS011;10365;52.578;8.138;2023-04-25T09:11:02;3.38;;;0.80;;
20411;SDS011;10365;52.578;8.138;2023-04-25T09:13:28;3.70;;;0.70;;
20411;SDS011;10365;52.578;8.138;2023-04-25T09:16:20;2.03;;;0.70;;
20411;SDS011;10365;52.578;8.138;2023-04-25T09:19:02;2.92;;;1.08;;
20411;SDS011;10365;52.578;8.138;2023-04-25T09:21:28;4.85;;;0.90;;
20411;SDS011;10365;52.578;8.138;2023-04-25T09:23:55;4.40;;;1.10;;
20411;SDS011;10365;52.578;8.138;2023-04-25T09:26:21;3.72;;;0.65;;
20411;SDS011;10365;52.578;8.138;2023-04-25T09:28:48;7.40;;;0.70;;
20411;SDS011;10365;52.578;8.138;2023-04-25T09:31:22;3.15;;;0.98;;
20411;SDS011;10365;52.578;8.138;2023-04-25T09:33:50;4.65;;;1.02;;
20411;SDS011;10365;52.578;8.138;2023-04-25T09:36:23;16.63;;;5.43;;
20411;SDS011;10365;52.578;8.138;2023-04-25T09:39:14;7.85;;;1.75;;
20411;SDS011;10365;52.578;8.138;2023-04-25T09:41:43;7.82;;;1.60;;
20411;SDS011;10365;52.578;8.138;2023-04-25T09:44:08;7.75;;;1.38;;
20411;SDS011;10365;52.578;8.138;2023-04-25T09:46:39;7.03;;;1.55;;
20411;SDS011;10365;52.578;8.138;2023-04-25T09:49:10;4.63;;;0.98;;
20411;SDS011;10365;52.578;8.138;2023-04-25T09:51:53;7.40;;;0.88;;
20411;SDS011;10365;52.578;8.138;2023-04-25T09:54:20;5.10;;;1.08;;
20411;SDS011;10365;52.578;8.138;2023-04-25T09:56:47;10.27;;;1.25;;
20411;SDS011;10365;52.578;8.138;2023-04-25T09:59:13;7.43;;;1.50;;
20411;SDS011;10365;52.578;8.138;2023-04-25T10:01:39;9.77;;;1.00;;
20411;SDS011;10365;52.578;8.138;2023-04-25T10:04:24;4.05;;;1.08;;
20411;SDS011;10365;52.578;8.138;2023-04-25T10:06:58;3.33;;;0.70;;
20411;SDS011;10365;52.578;8.138;2023-04-25T10:09:25;4.32;;;1.70;;
20411;SDS011;10365;52.578;8.138;2023-04-25T10:11:51;7.50;;;3.55;;
20411;SDS011;10365;52.578;8.138;2023-04-25T10:14:18;2.05;;;0.60;;
20411;SDS011;10365;52.578;8.138;2023-04-25T10:16:44;17.23;;;4.40;;
20411;SDS011;10365;52.578;8.138;2023-04-25T10:19:10;6.50;;;1.42;;
20411;SDS011;10365;52.578;8.138;2023-04-25T10:21:36;6.18;;;2.25;;
20411;SDS011;10365;52.578;8.138;2023-04-25T10:24:08;10.70;;;2.75;;
20411;SDS011;10365;52.578;8.138;2023-04-25T10:26:34;4.00;;;1.02;;
20411;SDS011;10365;52.578;8.138;2023-04-25T10:29:00;5.53;;;1.30;;
20411;SDS011;10365;52.578;8.138;2023-04-25T10:31:26;8.30;;;0.88;;
20411;SDS011;10365;52.578;8.138;2023-04-25T10:33:51;3.13;;;0.93;;
20411;SDS011;10365;52.578;8.138;2023-04-25T10:36:18;5.35;;;1.10;;
20411;SDS011;10365;52.578;8.138;2023-04-25T10:38:47;4.28;;;0.90;;
20411;SDS011;10365;52.578;8.138;2023-04-25T10:41:13;3.63;;;0.98;;
20411;SDS011;10365;52.578;8.138;2023-04-25T10:48:46;3.40;;;1.02;;
20411;SDS011;10365;52.578;8.138;2023-04-25T10:51:16;8.00;;;1.00;;
20411;SDS011;10365;52.578;8.138;2023-04-25T10:53:43;5.68;;;0.98;;
20411;SDS011;10365;52.578;8.138;2023-04-25T10:56:09;4.50;;;0.80;;
20411;SDS011;10365;52.578;8.138;2023-04-25T10:58:35;6.07;;;2.33;;
20411;SDS011;10365;52.578;8.138;2023-04-25T11:01:01;5.57;;;0.85;;
20411;SDS011;10365;52.578;8.138;2023-04-25T11:03:26;8.95;;;1.15;;
20411;SDS011;10365;52.578;8.138;2023-04-25T11:05:52;10.50;;;1.70;;
20411;SDS011;10365;52.578;8.138;2023-04-25T11:08:19;5.22;;;1.15;;
20411;SDS011;10365;52.578;8.138;2023-04-25T11:10:49;5.90;;;1.55;;
20411;SDS011;10365;52.578;8.138;2023-04-25T11:13:14;5.30;;;0.93;;
20411;SDS011;10365;52.578;8.138;2023-04-25T11:15:40;4.40;;;1.20;;
20411;SDS011;10365;52.578;8.138;2023-04-25T11:18:05;8.70;;;1.75;;
20411;SDS011;10365;52.578;8.138;2023-04-25T11:20:31;4.82;;;1.02;;
20411;SDS011;10365;52.578;8.138;2023-04-25T11:22:59;6.00;;;1.00;;
20411;SDS011;10365;52.578;8.138;2023-04-25T11:25:25;6.25;;;1.45;;
20411;SDS011;10365;52.578;8.138;2023-04-25T11:27:58;7.00;;;1.17;;
20411;SDS011;10365;52.578;8.138;2023-04-25T11:30:24;3.45;;;1.10;;
20411;SDS011;10365;52.578;8.138;2023-04-25T11:32:50;8.18;;;1.08;;
20411;SDS011;10365;52.578;8.138;2023-04-25T11:35:17;4.35;;;1.70;;
20411;SDS011;10365;52.578;8.138;2023-04-25T11:37:43;5.07;;;0.95;;
20411;SDS011;10365;52.578;8.138;2023-04-25T11:40:08;5.25;;;1.10;;
20411;SDS011;10365;52.578;8.138;2023-04-25T11:42:46;6.10;;;1.65;;
20411;SDS011;10365;52.578;8.138;2023-04-25T11:45:12;6.10;;;1.88;;
20411;SDS011;10365;52.578;8.138;2023-04-25T11:47:38;2.45;;;0.45;;
20411;SDS011;10365;52.578;8.138;2023-04-25T11:50:04;9.35;;;3.70;;
20411;SDS011;10365;52.578;8.138;2023-04-25T11:52:41;3.03;;;1.25;;
20411;SDS011;10365;52.578;8.138;2023-04-25T11:55:07;6.15;;;2.53;;
20411;SDS011;10365;52.578;8.138;2023-04-25T11:57:33;13.07;;;4.47;;
20411;SDS011;10365;52.578;8.138;2023-04-25T12:00:17;8.80;;;4.05;;
20411;SDS011;10365;52.578;8.138;2023-04-25T12:02:44;8.68;;;2.10;;
20411;SDS011;10365;52.578;8.138;2023-04-25T12:05:11;6.88;;;2.67;;
20411;SDS011;10365;52.578;8.138;2023-04-25T12:07:36;6.65;;;1.30;;
20411;SDS011;10365;52.578;8.138;2023-04-25T12:10:09;6.05;;;1.58;;
20411;SDS011;10365;52.578;8.138;2023-04-25T12:12:36;4.85;;;1.67;;
20411;SDS011;10365;52.578;8.138;2023-04-25T12:15:14;4.88;;;1.55;;
20411;SDS011;10365;52.578;8.138;2023-04-25T12:17:41;7.90;;;1.92;;
20411;SDS011;10365;52.578;8.138;2023-04-25T12:20:10;7.57;;;0.93;;
20411;SDS011;10365;52.578;8.138;2023-04-25T12:22:36;4.13;;;0.98;;
20411;SDS011;10365;52.578;8.138;2023-04-25T12:25:02;6.38;;;0.90;;
20411;SDS011;10365;52.578;8.138;2023-04-25T12:27:30;5.70;;;1.48;;
20411;SDS011;10365;52.578;8.138;2023-04-25T12:29:55;12.35;;;3.20;;
20411;SDS011;10365;52.578;8.138;2023-04-25T12:32:21;3.20;;;0.95;;
20411;SDS011;10365;52.578;8.138;2023-04-25T12:34:46;3.03;;;0.77;;
20411;SDS011;10365;52.578;8.138;2023-04-25T12:37:12;3.08;;;0.63;;
20411;SDS011;10365;52.578;8.138;2023-04-25T12:39:37;6.68;;;1.52;;
20411;SDS011;10365;52.578;8.138;2023-04-25T12:42:03;9.98;;;3.35;;
20411;SDS011;10365;52.578;8.138;2023-04-25T12:44:28;26.05;;;10.85;;
20411;SDS011;10365;52.578;8.138;2023-04-25T12:46:54;23.65;;;8.82;;
20411;SDS011;10365;52.578;8.138;2023-04-25T12:49:20;14.13;;;5.03;;
20411;SDS011;10365;52.578;8.138;2023-04-25T12:51:45;4.53;;;1.17;;
20411;SDS011;10365;52.578;8.138;2023-04-25T12:54:12;4.03;;;0.85;;
20411;SDS011;10365;52.578;8.138;2023-04-25T12:56:37;4.10;;;1.75;;
20411;SDS011;10365;52.578;8.138;2023-04-25T12:59:03;4.65;;;1.45;;
20411;SDS011;10365;52.578;8.138;2023-04-25T13:01:28;5.70;;;1.77;;
20411;SDS011;10365;52.578;8.138;2023-04-25T13:03:54;3.47;;;1.05;;
20411;SDS011;10365;52.578;8.138;2023-04-25T13:06:19;7.40;;;0.80;;
20411;SDS011;10365;52.578;8.138;2023-04-25T13:08:45;7.53;;;0.82;;
20411;SDS011;10365;52.578;8.138;2023-04-25T13:11:11;6.72;;;1.00;;
20411;SDS011;10365;52.578;8.138;2023-04-25T13:13:36;5.60;;;0.90;;
20411;SDS011;10365;52.578;8.138;2023-04-25T13:16:02;6.28;;;1.13;;
20411;SDS011;10365;52.578;8.138;2023-04-25T13:18:29;5.30;;;1.13;;
20411;SDS011;10365;52.578;8.138;2023-04-25T13:20:54;11.52;;;1.38;;
20411;SDS011;10365;52.578;8.138;2023-04-25T13:23:20;6.35;;;0.90;;
20411;SDS011;10365;52.578;8.138;2023-04-25T13:25:46;2.80;;;0.90;;
20411;SDS011;10365;52.578;8.138;2023-04-25T13:28:12;3.10;;;0.80;;
20411;SDS011;10365;52.578;8.138;2023-04-25T13:30:37;9.93;;;1.27;;
20411;SDS011;10365;52.578;8.138;2023-04-25T13:33:02;5.68;;;1.10;;
20411;SDS011;10365;52.578;8.138;2023-04-25T13:35:29;8.32;;;0.85;;
20411;SDS011;10365;52.578;8.138;2023-04-25T13:37:54;7.53;;;0.80;;
20411;SDS011;10365;52.578;8.138;2023-04-25T13:40:20;5.72;;;0.93;;
20411;SDS011;10365;52.578;8.138;2023-04-25T13:42:46;5.63;;;0.70;;
20411;SDS011;10365;52.578;8.138;2023-04-25T13:45:11;4.90;;;0.80;;
20411;SDS011;10365;52.578;8.138;2023-04-25T13:47:37;4.63;;;1.23;;
20411;SDS011;10365;52.578;8.138;2023-04-25T13:50:03;4.60;;;1.52;;
20411;SDS011;10365;52.578;8.138;2023-04-25T13:52:29;6.60;;;1.13;;
20411;SDS011;10365;52.578;8.138;2023-04-25T13:54:54;5.22;;;1.13;;
20411;SDS011;10365;52.578;8.138;2023-04-25T13:57:20;6.03;;;1.15;;
20411;SDS011;10365;52.578;8.138;2023-04-25T13:59:45;6.38;;;1.15;;
20411;SDS011;10365;52.578;8.138;2023-04-25T14:02:11;5.00;;;1.10;;
20411;SDS011;10365;52.578;8.138;2023-04-25T14:04:37;6.82;;;1.20;;
20411;SDS011;10365;52.578;8.138;2023-04-25T14:07:03;9.82;;;1.15;;
20411;SDS011;10365;52.578;8.138;2023-04-25T14:09:28;6.38;;;1.55;;
20411;SDS011;10365;52.578;8.138;2023-04-25T14:11:54;7.75;;;1.13;;
20411;SDS011;10365;52.578;8.138;2023-04-25T14:14:19;3.90;;;0.98;;
20411;SDS011;10365;52.578;8.138;2023-04-25T14:16:46;5.32;;;1.88;;
20411;SDS011;10365;52.578;8.138;2023-04-25T14:19:13;2.60;;;0.80;;
20411;SDS011;10365;52.578;8.138;2023-04-25T14:21:39;5.75;;;0.90;;
20411;SDS011;10365;52.578;8.138;2023-04-25T14:24:04;5.38;;;1.27;;
20411;SDS011;10365;52.578;8.138;2023-04-25T14:26:30;5.90;;;1.83;;
20411;SDS011;10365;52.578;8.138;2023-04-25T14:28:55;7.55;;;1.65;;
20411;SDS011;10365;52.578;8.138;2023-04-25T14:31:21;11.18;;;3.25;;
20411;SDS011;10365;52.578;8.138;2023-04-25T14:33:46;11.02;;;4.80;;
20411;SDS011;10365;52.578;8.138;2023-04-25T14:36:12;15.25;;;5.72;;
20411;SDS011;10365;52.578;8.138;2023-04-25T14:38:37;7.03;;;2.90;;
20411;SDS011;10365;52.578;8.138;2023-04-25T14:41:03;3.33;;;1.60;;
20411;SDS011;10365;52.578;8.138;2023-04-25T14:43:28;9.32;;;2.92;;
20411;SDS011;10365;52.578;8.138;2023-04-25T14:45:53;7.97;;;2.25;;
20411;SDS011;10365;52.578;8.138;2023-04-25T14:48:19;5.18;;;1.40;;
20411;SDS011;10365;52.578;8.138;2023-04-25T14:50:44;7.82;;;1.80;;
20411;SDS011;10365;52.578;8.138;2023-04-25T14:53:10;7.97;;;1.67;;